Time;durP1;ratioP1;P1;durP2;ratioP2;P2;SDS_P1;SDS_P2;PMS_P1;PMS_P2;Temp;Humidity;BMP_temperature;BMP_pressure;BME280_temperature;BME280_humidity;BME280_pressure;Samples;Min_cycle;Max_cycle;Signal;HPM_P1;HPM_P2
2021/12/28 00:05:27;;;;;;;22.15;5.78;;;;;;;7.82;100.00;98913.75;21003754;28;20697;-84
2021/12/28 00:15:35;;;;;;;20.98;4.50;;;;;;;7.63;100.00;98900.38;21020082;28;20126;-83
2021/12/28 00:25:37;;;;;;;24.83;5.03;;;;;;;7.85;100.00;98879.75;20999768;28;20785;-83
2021/12/28 00:35:40;;;;;;;20.92;4.40;;;;;;;8.02;100.00;98879.28;21009386;28;20113;-83
2021/12/28 00:45:42;;;;;;;18.27;3.88;;;;;;;8.16;100.00;98876.28;21020426;28;20076;-83
2021/12/28 00:55:44;;;;;;;23.25;3.75;;;;;;;8.13;100.00;98871.13;20993883;28;20540;-82
2021/12/28 01:05:46;;;;;;;21.70;4.10;;;;;;;7.91;100.00;98853.56;20990257;28;20117;-83
2021/12/28 01:15:50;;;;;;;20.83;2.97;;;;;;;7.77;100.00;98840.06;20985618;28;20056;-83
2021/12/28 01:25:52;;;;;;;21.02;3.42;;;;;;;7.66;100.00;98829.09;20996663;28;20422;-83
2021/12/28 01:35:54;;;;;;;18.80;3.45;;;;;;;7.50;100.00;98825.22;20992997;28;20052;-83
2021/12/28 01:46:01;;;;;;;21.73;3.47;;;;;;;7.53;100.00;98817.34;20998435;28;20044;-83
2021/12/28 01:56:10;;;;;;;21.23;4.27;;;;;;;7.41;100.00;98811.56;21015739;28;20040;-83
2021/12/28 02:06:13;;;;;;;19.42;2.95;;;;;;;7.53;100.00;98801.72;21013191;28;20048;-83
2021/12/28 02:16:15;;;;;;;14.95;2.63;;;;;;;7.62;100.00;98785.81;20990653;28;20052;-83
2021/12/28 02:26:17;;;;;;;16.23;3.75;;;;;;;7.64;100.00;98763.19;20986497;28;20494;-83
2021/12/28 02:36:20;;;;;;;14.48;3.10;;;;;;;7.65;100.00;98759.66;21004101;28;20098;-83
2021/12/28 02:46:21;;;;;;;14.40;2.25;;;;;;;7.62;100.00;98747.59;21008448;28;20448;-83
2021/12/28 02:56:23;;;;;;;11.43;1.88;;;;;;;7.80;100.00;98725.31;21026205;28;20040;-83
2021/12/28 03:06:28;;;;;;;16.45;2.72;;;;;;;7.96;100.00;98721.34;21024365;28;20086;-82
2021/12/28 03:16:31;;;;;;;10.95;1.63;;;;;;;7.96;100.00;98716.13;20998855;28;20040;-82
2021/12/28 03:26:33;;;;;;;12.02;2.22;;;;;;;8.06;100.00;98708.03;21000718;28;20048;-83
2021/12/28 03:36:35;;;;;;;15.52;1.85;;;;;;;8.17;100.00;98692.88;20999709;28;20044;-84
2021/12/28 03:46:36;;;;;;;14.23;3.38;;;;;;;8.12;100.00;98680.00;20997367;28;20044;-83
2021/12/28 03:56:38;;;;;;;13.60;2.92;;;;;;;8.05;100.00;98667.19;20999855;28;20053;-83
2021/12/28 04:06:39;;;;;;;14.18;3.00;;;;;;;7.93;100.00;98653.69;21018978;28;20057;-84
2021/12/28 04:16:43;;;;;;;10.23;2.10;;;;;;;7.76;100.00;98644.69;21037538;28;20055;-83
2021/12/28 04:26:44;;;;;;;8.10;2.22;;;;;;;7.66;100.00;98629.38;20997560;28;20074;-82
2021/12/28 04:36:47;;;;;;;13.15;1.88;;;;;;;7.55;100.00;98630.63;20998327;28;20135;-83
2021/12/28 04:46:48;;;;;;;15.00;2.80;;;;;;;7.46;100.00;98626.56;20998155;28;20455;-83
2021/12/28 04:56:53;;;;;;;17.50;4.67;;;;;;;7.48;100.00;98622.16;20998501;28;20086;-83
2021/12/28 05:06:54;;;;;;;26.48;7.35;;;;;;;7.39;100.00;98620.69;21022482;28;20070;-84
2021/12/28 05:16:57;;;;;;;11.90;2.78;;;;;;;7.35;100.00;98611.28;21000589;28;20093;-83
2021/12/28 05:26:59;;;;;;;14.48;3.80;;;;;;;7.37;100.00;98596.44;20997427;28;20067;-84
2021/12/28 05:37:00;;;;;;;10.82;2.80;;;;;;;7.37;100.00;98579.97;20985845;28;20049;-83
2021/12/28 05:47:21;;;;;;;10.88;2.60;;;;;;;7.39;100.00;98563.44;20970803;28;20036;-84
2021/12/28 05:57:24;;;;;;;9.68;2.33;;;;;;;7.50;100.00;98546.59;20985044;28;20504;-83
2021/12/28 06:07:27;;;;;;;11.82;1.98;;;;;;;7.61;100.00;98541.88;20976965;28;20106;-84
2021/12/28 06:17:28;;;;;;;5.65;1.63;;;;;;;7.70;100.00;98547.63;20983877;28;20052;-84
2021/12/28 06:27:30;;;;;;;5.25;1.40;;;;;;;7.78;100.00;98549.13;20988576;28;20106;-84
2021/12/28 06:37:31;;;;;;;7.63;1.60;;;;;;;7.82;100.00;98538.56;21006975;28;20041;-84
2021/12/28 06:47:33;;;;;;;4.47;1.20;;;;;;;8.07;100.00;98543.75;20980966;28;20071;-84
2021/12/28 06:57:34;;;;;;;4.22;0.80;;;;;;;8.25;100.00;98539.66;20980768;28;20056;-83
2021/12/28 07:07:36;;;;;;;4.00;0.60;;;;;;;8.20;100.00;98528.53;20979374;28;20037;-84
2021/12/28 07:17:39;;;;;;;2.13;0.90;;;;;;;8.23;100.00;98528.41;21007762;28;20414;-84
2021/12/28 07:27:40;;;;;;;3.78;0.80;;;;;;;8.35;100.00;98535.81;20984703;28;20044;-83
2021/12/28 07:37:42;;;;;;;1.27;0.40;;;;;;;8.34;100.00;98541.09;20993642;28;20071;-84
2021/12/28 07:47:44;;;;;;;2.67;1.20;;;;;;;8.38;100.00;98553.94;20996175;28;20440;-84
2021/12/28 07:57:45;;;;;;;1.80;0.70;;;;;;;8.46;100.00;98559.75;20987767;28;20056;-84
2021/12/28 08:07:47;;;;;;;3.50;1.30;;;;;;;8.52;100.00;98543.00;20978925;28;20118;-84
2021/12/28 08:17:48;;;;;;;1.65;0.47;;;;;;;8.55;100.00;98544.69;20979740;28;20105;-84
2021/12/28 08:27:50;;;;;;;1.85;0.73;;;;;;;8.67;100.00;98565.06;20974112;28;20094;-84
2021/12/28 08:37:52;;;;;;;2.00;0.40;;;;;;;8.74;100.00;98566.56;20992872;28;20040;-84
2021/12/28 08:47:53;;;;;;;6.63;1.23;;;;;;;8.77;100.00;98581.22;20983038;28;20403;-83
2021/12/28 08:57:55;;;;;;;1.98;0.43;;;;;;;8.95;100.00;98588.38;21003400;28;20048;-84
2021/12/28 09:07:57;;;;;;;3.75;0.82;;;;;;;8.96;100.00;98596.16;20993608;28;20567;-84
2021/12/28 09:17:59;;;;;;;1.55;0.50;;;;;;;8.97;100.00;98610.91;20972117;28;20468;-83
2021/12/28 09:28:01;;;;;;;2.60;0.90;;;;;;;9.17;100.00;98635.41;20973198;28;20568;-85
2021/12/28 09:38:03;;;;;;;3.55;0.70;;;;;;;9.21;100.00;98648.28;20976549;28;20044;-84
2021/12/28 09:48:06;;;;;;;2.78;1.10;;;;;;;9.33;100.00;98654.78;21007366;28;20052;-84
2021/12/28 09:58:09;;;;;;;1.50;0.60;;;;;;;9.55;100.00;98672.25;21035338;28;20045;-84
2021/12/28 10:08:31;;;;;;;4.53;1.00;;;;;;;9.65;100.00;98668.38;21017517;28;20044;-84
2021/12/28 10:18:32;;;;;;;5.35;2.40;;;;;;;9.82;100.00;98672.91;20987715;28;20052;-84
2021/12/28 10:28:38;;;;;;;4.90;2.10;;;;;;;9.87;100.00;98657.88;21005582;28;20052;-84
2021/12/28 10:38:46;;;;;;;6.68;2.60;;;;;;;9.97;100.00;98662.69;21002793;28;20044;-84
2021/12/28 10:48:51;;;;;;;3.50;1.55;;;;;;;10.02;100.00;98652.91;21004895;28;20102;-84
2021/12/28 10:58:53;;;;;;;5.85;1.70;;;;;;;10.18;100.00;98658.31;20986044;28;20049;-84
2021/12/28 11:08:58;;;;;;;11.35;5.75;;;;;;;10.24;100.00;98647.63;20990212;28;20473;-84
2021/12/28 11:19:05;;;;;;;6.40;2.35;;;;;;;10.30;100.00;98643.94;21005973;28;20086;-85
2021/12/28 11:29:16;;;;;;;3.85;1.30;;;;;;;10.27;100.00;98631.81;20982205;28;20044;-84
2021/12/28 11:39:27;;;;;;;4.10;1.70;;;;;;;10.27;100.00;98617.88;20981450;28;20055;-84
2021/12/28 11:49:29;;;;;;;7.03;2.67;;;;;;;10.62;100.00;98607.63;21000212;28;20101;-84
2021/12/28 11:59:32;;;;;;;4.68;2.17;;;;;;;10.82;100.00;98576.16;20997973;28;20102;-84
2021/12/28 12:09:54;;;;;;;3.45;1.40;;;;;;;10.88;100.00;98589.00;20980091;28;20460;-84
2021/12/28 12:20:04;;;;;;;6.13;1.33;;;;;;;10.87;100.00;98579.44;20986571;28;20127;-84
2021/12/28 12:30:34;;;;;;;;;;;;;;;10.85;100.00;98581.28;21001542;28;20452;-84
2021/12/28 12:41:14;;;;;;;2.80;0.90;;;;;;;10.89;100.00;98572.38;20984532;28;19920;-84
2021/12/28 13:01:26;;;;;;;4.85;0.90;;;;;;;10.70;100.00;98524.41;20990496;28;20044;-85
2021/12/28 13:11:28;;;;;;;;;;;;;;;10.73;100.00;98514.66;20970901;28;20670;-84
2021/12/28 13:21:30;;;;;;;2.88;1.10;;;;;;;10.56;100.00;98488.38;20970999;28;19951;-85
2021/12/28 13:31:31;;;;;;;4.45;1.80;;;;;;;10.51;100.00;98493.00;20996443;28;20498;-84
2021/12/28 13:41:33;;;;;;;8.25;2.67;;;;;;;10.51;100.00;98512.16;20987062;28;20132;-84
2021/12/28 13:51:35;;;;;;;4.65;1.73;;;;;;;10.40;100.00;98514.41;20971584;28;20696;-84
2021/12/28 14:01:44;;;;;;;4.75;1.23;;;;;;;10.26;100.00;98550.81;20986599;28;20048;-83
2021/12/28 14:11:49;;;;;;;2.38;0.70;;;;;;;9.75;100.00;98633.09;20988455;28;20090;-84
2021/12/28 14:21:50;;;;;;;6.18;1.30;;;;;;;9.24;100.00;98655.13;20968901;28;20056;-83
2021/12/28 14:31:57;;;;;;;8.45;1.10;;;;;;;8.90;98.99;98619.88;20981110;28;20044;-85
2021/12/28 14:42:07;;;;;;;7.63;1.25;;;;;;;8.87;99.97;98538.25;21012474;28;20052;-85
2021/12/28 14:52:13;;;;;;;9.63;1.80;;;;;;;8.65;100.00;98565.13;21008917;28;20571;-85
2021/12/28 15:02:16;;;;;;;10.80;2.92;;;;;;;8.57;100.00;98602.84;20987438;28;20048;-84
2021/12/28 15:12:19;;;;;;;10.73;2.50;;;;;;;8.34;100.00;98627.13;20983379;28;20440;-84
2021/12/28 15:22:20;;;;;;;10.45;1.95;;;;;;;8.35;100.00;98671.41;20999458;28;20048;-84
2021/12/28 15:32:22;;;;;;;10.55;1.90;;;;;;;8.61;100.00;98719.22;20981580;28;20449;-85
2021/12/28 15:42:24;;;;;;;11.15;2.13;;;;;;;8.65;98.94;98695.59;21006345;28;20048;-84
2021/12/28 15:52:25;;;;;;;10.80;2.10;;;;;;;8.56;95.99;98722.00;20994379;28;20536;-84
2021/12/28 16:02:27;;;;;;;10.73;1.98;;;;;;;8.36;95.84;98714.84;20976515;28;20055;-85
2021/12/28 16:12:29;;;;;;;8.45;1.55;;;;;;;8.18;93.54;98751.91;20979990;28;20072;-85
2021/12/28 16:22:30;;;;;;;8.05;1.30;;;;;;;7.87;94.39;98768.53;20979551;28;20098;-84
2021/12/28 16:32:32;;;;;;;10.73;2.00;;;;;;;7.68;96.25;98759.59;20976448;28;20044;-84
2021/12/28 16:42:34;;;;;;;6.88;1.85;;;;;;;7.51;97.07;98787.88;20974683;28;20037;-83
2021/12/28 16:52:35;;;;;;;10.30;1.90;;;;;;;7.39;98.38;98818.59;20977188;28;20052;-85
2021/12/28 17:02:37;;;;;;;10.40;1.67;;;;;;;7.26;100.00;98826.78;21003656;28;20567;-84
2021/12/28 17:12:39;;;;;;;10.80;1.98;;;;;;;7.13;100.00;98837.50;20973507;28;20683;-84
2021/12/28 17:22:41;;;;;;;7.43;2.17;;;;;;;6.98;100.00;98824.06;20971832;28;20048;-84
2021/12/28 17:32:43;;;;;;;10.07;2.55;;;;;;;7.09;100.00;98825.50;20989994;28;20648;-83
2021/12/28 17:42:46;;;;;;;13.07;2.67;;;;;;;7.35;100.00;98816.97;20969601;28;20098;-84
2021/12/28 17:52:47;;;;;;;13.68;2.58;;;;;;;7.49;100.00;98823.53;20968249;28;20049;-83
2021/12/28 18:02:49;;;;;;;12.20;2.80;;;;;;;7.54;100.00;98811.22;20979466;28;20041;-84
2021/12/28 18:12:51;;;;;;;15.77;3.33;;;;;;;7.61;100.00;98802.31;20999528;28;20461;-84
2021/12/28 18:22:55;;;;;;;12.67;3.73;;;;;;;7.63;100.00;98798.78;20934664;28;20532;-83
2021/12/28 18:33:02;;;;;;;22.58;7.07;;;;;;;7.58;100.00;98799.84;20908660;28;20075;-84
2021/12/28 18:43:05;;;;;;;14.27;3.00;;;;;;;7.82;100.00;98793.03;20924383;28;20106;-84
2021/12/28 18:53:13;;;;;;;15.32;3.17;;;;;;;8.03;100.00;98826.25;20902481;28;20458;-85
2021/12/28 19:03:16;;;;;;;12.80;3.20;;;;;;;8.40;100.00;98815.56;20899960;28;20045;-84
2021/12/28 19:13:18;;;;;;;14.82;3.20;;;;;;;8.57;100.00;98811.53;20922972;28;20053;-84
2021/12/28 19:23:21;;;;;;;13.63;2.97;;;;;;;8.66;100.00;98816.44;20912015;28;20083;-84
2021/12/28 19:33:42;;;;;;;15.07;3.85;;;;;;;8.72;100.00;98803.22;20920867;28;20048;-84
2021/12/28 19:43:45;;;;;;;15.20;2.70;;;;;;;8.81;99.96;98812.47;20901256;28;20556;-84
2021/12/28 19:53:47;;;;;;;11.95;3.28;;;;;;;8.86;99.53;98803.59;20898402;28;20405;-84
2021/12/28 20:03:48;;;;;;;20.48;3.47;;;;;;;8.97;97.79;98806.69;20893595;28;20094;-84
2021/12/28 20:13:51;;;;;;;9.80;2.65;;;;;;;9.13;96.81;98803.53;20945978;28;20114;-83
2021/12/28 20:23:55;;;;;;;17.60;3.33;;;;;;;9.19;96.36;98798.94;20999927;28;20109;-85
2021/12/28 20:33:57;;;;;;;15.60;2.95;;;;;;;9.20;95.56;98802.41;20981587;28;20044;-84
2021/12/28 20:43:59;;;;;;;12.70;3.03;;;;;;;9.35;93.61;98832.34;20972987;28;20097;-84
2021/12/28 20:54:01;;;;;;;18.42;3.40;;;;;;;9.39;93.24;98845.25;20970780;28;20053;-84
2021/12/28 21:04:03;;;;;;;20.20;3.20;;;;;;;9.33;94.86;98875.94;20988153;28;20045;-84
2021/12/28 21:14:04;;;;;;;13.77;3.17;;;;;;;9.41;93.86;98895.66;20988522;28;20098;-84
2021/12/28 21:24:06;;;;;;;21.85;2.95;;;;;;;9.38;94.05;98931.50;20992317;28;20411;-84
2021/12/28 21:34:07;;;;;;;22.95;3.35;;;;;;;9.35;95.62;98942.91;20983421;28;20040;-84
2021/12/28 21:44:29;;;;;;;20.77;3.50;;;;;;;9.38;94.82;98963.69;20997390;28;20414;-84
2021/12/28 21:54:30;;;;;;;23.08;3.53;;;;;;;9.39;95.14;98988.94;21005503;28;20071;-84
2021/12/28 22:04:34;;;;;;;22.48;3.40;;;;;;;9.29;95.35;99010.16;20983961;28;20075;-83
2021/12/28 22:14:37;;;;;;;32.75;4.93;;;;;;;9.28;95.87;99035.41;20985149;28;20073;-84
2021/12/28 22:24:38;;;;;;;17.27;3.40;;;;;;;9.27;95.61;99049.38;20984176;28;20052;-83
2021/12/28 22:34:44;;;;;;;20.40;3.63;;;;;;;9.20;97.01;99068.78;21003213;28;20115;-84
2021/12/28 22:44:45;;;;;;;19.10;3.97;;;;;;;9.13;98.64;99094.22;20992052;28;20078;-84
2021/12/28 22:54:47;;;;;;;20.88;4.30;;;;;;;9.11;98.82;99116.06;20988382;28;20054;-84
2021/12/28 23:05:03;;;;;;;16.05;3.75;;;;;;;8.98;100.00;99126.88;20997217;28;20098;-83
2021/12/28 23:15:05;;;;;;;23.85;4.18;;;;;;;8.88;100.00;99128.03;20979652;28;20044;-84
2021/12/28 23:25:11;;;;;;;17.55;3.35;;;;;;;8.83;100.00;99148.19;20980724;28;20098;-83
2021/12/28 23:35:15;;;;;;;21.20;2.85;;;;;;;8.92;100.00;99155.78;20983133;28;20094;-84
2021/12/28 23:45:19;;;;;;;12.35;2.55;;;;;;;8.91;100.00;99180.16;20990954;28;20051;-83
2021/12/28 23:55:41;;;;;;;18.38;3.63;;;;;;;8.84;100.00;99181.22;21012620;28;20074;-84
